Gibraltar, Gibraltar

65.5°F / 18.6°C
Partly Cloudy
Humidity: 66%
Dew Point: 54°F / 12°C
Wind: West at 0.6 mph / 1.0 km/h
Wind Gust: 1.2 mph / 1.9 km/h
Pressure: 30.04 in / 1017 hPa (Steady)
Visibility: 3.7 miles / 6.0 kilometers
Clouds: (FEW) : 1000 ft / 304 m
Yesterday's Maximum: 81.7°F / 27.6°C
Yesterday's Minimum: 60.4°F / 15.8°C
UV: 0 out of 16
Sunrise:7:33 AM CEST
Sunset:9:05 PM CEST
Moon Rise:6:36 PM CEST
Moon Set:6:21 AM CEST
Moon Phase Waxing Gibbous
NOAA Weather Radio
No local feed.
METAR GMTT 270030Z 12004KT 6000 R28///// FEW010 15/13 Q1017
As of: 2:51 AM CEST on April 27, 2018
Observed at: Rosia Lane, Gibraltar, Gibraltar

View Station's History

No Yes

Local Satellite

Current Satellite Forecast
Region Default Local
No Yes

View Full Screen WunderMap

Forecast

Current Satellite Forecast

Features

Weather Apps

WunderRadio

Weather Underground Apps
Check out our wide variety of mobile and setup applications.

Weather Underground Applications

Top of Page

© Copyright 2018
The Weather Company, LLC